Time;durP1;ratioP1;P1;durP2;ratioP2;P2;SDS_P1;SDS_P2;PMS_P1;PMS_P2;Temp;Humidity;BMP_temperature;BMP_pressure;BME280_temperature;BME280_humidity;BME280_pressure;Samples;Min_cycle;Max_cycle;Signal;HPM_P1;HPM_P2
2023/08/31 00:00:11;;;;;;;6.68;2.80;;;16.40;99.90;;;;;;5073222;28;20027;-60
2023/08/31 00:02:39;;;;;;;7.45;3.25;;;16.40;99.90;;;;;;5073323;28;20404;-60
2023/08/31 00:05:05;;;;;;;10.15;3.47;;;16.50;99.90;;;;;;5073312;28;20408;-60
2023/08/31 00:07:31;;;;;;;8.50;3.15;;;16.50;99.90;;;;;;5073462;28;20091;-59
2023/08/31 00:09:58;;;;;;;7.93;3.30;;;16.50;99.90;;;;;;5073266;28;20039;-59
2023/08/31 00:12:24;;;;;;;7.05;3.40;;;16.50;99.90;;;;;;5072534;28;20064;-59
2023/08/31 00:14:52;;;;;;;6.88;3.45;;;16.40;99.90;;;;;;5073043;28;20106;-60
2023/08/31 00:17:18;;;;;;;8.52;3.33;;;16.40;99.90;;;;;;5073012;28;20020;-60
2023/08/31 00:19:44;;;;;;;6.45;3.28;;;16.40;99.90;;;;;;5072893;28;20082;-60
2023/08/31 00:22:10;;;;;;;7.95;3.40;;;16.40;99.90;;;;;;5073198;28;20032;-60
2023/08/31 00:24:36;;;;;;;8.48;3.55;;;16.30;99.90;;;;;;5072882;28;20047;-60
2023/08/31 00:27:06;;;;;;;7.30;3.33;;;16.10;99.90;;;;;;5071199;28;20047;-60
2023/08/31 00:29:32;;;;;;;8.25;3.33;;;16.00;99.90;;;;;;5072610;28;20040;-60
2023/08/31 00:31:58;;;;;;;9.05;3.33;;;15.90;99.90;;;;;;5072728;28;20032;-60
2023/08/31 00:34:23;;;;;;;9.02;4.00;;;15.80;99.90;;;;;;5072949;28;20039;-60
2023/08/31 00:36:49;;;;;;;8.65;3.78;;;15.70;99.90;;;;;;5072905;28;20021;-60
2023/08/31 00:39:17;;;;;;;6.90;3.50;;;15.70;99.90;;;;;;5054458;28;20396;-60
2023/08/31 00:41:45;;;;;;;8.63;3.70;;;15.70;99.90;;;;;;5072091;28;20073;-60
2023/08/31 00:44:11;;;;;;;7.68;3.35;;;15.70;99.90;;;;;;5072810;28;20052;-60
2023/08/31 00:46:37;;;;;;;6.82;3.15;;;15.70;99.90;;;;;;5072295;28;20021;-60
2023/08/31 00:49:06;;;;;;;7.07;3.10;;;15.60;99.90;;;;;;5072504;28;20028;-60
2023/08/31 00:51:32;;;;;;;7.57;3.50;;;15.60;99.90;;;;;;5064139;28;20048;-60
2023/08/31 00:53:58;;;;;;;6.68;3.45;;;15.60;99.90;;;;;;5092659;28;20506;-59
2023/08/31 00:56:26;;;;;;;5.25;2.80;;;15.60;99.90;;;;;;5092550;28;20024;-59
2023/08/31 00:58:51;;;;;;;8.07;3.22;;;15.60;99.90;;;;;;5092411;28;20049;-60
2023/08/31 01:01:25;;;;;;;6.45;3.60;;;15.60;99.90;;;;;;5092362;28;20040;-60
2023/08/31 01:04:06;;;;;;;7.57;3.60;;;15.70;99.90;;;;;;5092589;28;20081;-60
2023/08/31 01:06:32;;;;;;;7.55;3.50;;;15.60;99.90;;;;;;5092615;28;20561;-61
2023/08/31 01:09:18;;;;;;;8.50;3.75;;;15.60;99.90;;;;;;5091705;28;20036;-59
2023/08/31 01:12:04;;;;;;;7.07;3.33;;;15.60;99.90;;;;;;5092515;28;20031;-59
2023/08/31 01:14:53;;;;;;;6.68;3.30;;;15.60;99.90;;;;;;5092175;28;20502;-60
2023/08/31 01:17:22;;;;;;;10.40;3.60;;;15.70;99.90;;;;;;5091571;28;20044;-60
2023/08/31 01:19:56;;;;;;;8.10;3.35;;;15.90;99.90;;;;;;5086761;28;20070;-60
2023/08/31 01:22:40;;;;;;;8.27;3.42;;;16.00;99.90;;;;;;5071656;28;20440;-60
2023/08/31 01:25:09;;;;;;;8.32;3.80;;;16.10;99.90;;;;;;5071261;28;20020;-60
2023/08/31 01:27:35;;;;;;;7.88;3.45;;;16.10;99.90;;;;;;5071665;28;20163;-60
2023/08/31 01:30:05;;;;;;;8.45;3.50;;;16.10;99.90;;;;;;5071486;28;20028;-60
2023/08/31 01:32:34;;;;;;;10.88;3.30;;;16.20;99.90;;;;;;5071442;28;20477;-60
2023/08/31 01:35:03;;;;;;;6.78;3.10;;;16.20;99.90;;;;;;5071828;28;20107;-59
2023/08/31 01:37:44;;;;;;;22.05;4.43;;;16.30;99.90;;;;;;5070777;28;20062;-59
2023/08/31 01:40:14;;;;;;;9.38;3.15;;;16.30;99.90;;;;;;5071332;28;20092;-60
2023/08/31 01:42:44;;;;;;;6.70;3.22;;;16.30;99.90;;;;;;5071681;28;20029;-60
2023/08/31 01:45:18;;;;;;;8.80;3.15;;;16.20;99.90;;;;;;5071377;28;20374;-60
2023/08/31 01:47:44;;;;;;;8.98;3.75;;;16.10;99.90;;;;;;5071165;28;20028;-60
2023/08/31 01:50:11;;;;;;;10.50;3.22;;;16.00;99.90;;;;;;5071367;28;20146;-60
2023/08/31 01:52:37;;;;;;;8.45;3.22;;;16.00;99.90;;;;;;5070569;28;20473;-60
2023/08/31 01:55:03;;;;;;;8.30;3.38;;;16.00;99.90;;;;;;5071591;28;20044;-60
2023/08/31 01:57:29;;;;;;;7.82;3.65;;;15.90;99.90;;;;;;5071027;28;20512;-59
2023/08/31 01:59:55;;;;;;;8.43;3.40;;;15.80;99.90;;;;;;5071287;28;20024;-60
2023/08/31 02:02:21;;;;;;;7.30;3.40;;;15.80;99.90;;;;;;5071082;28;20524;-60
2023/08/31 02:04:46;;;;;;;8.95;3.25;;;15.70;99.90;;;;;;5071062;28;20020;-60
2023/08/31 02:07:12;;;;;;;9.60;3.22;;;15.60;99.90;;;;;;5070793;28;20031;-60
2023/08/31 02:09:38;;;;;;;7.28;3.58;;;15.60;99.90;;;;;;5070991;28;20033;-60
2023/08/31 02:12:04;;;;;;;8.13;3.22;;;15.50;99.90;;;;;;5071384;28;20104;-60
2023/08/31 02:14:30;;;;;;;8.98;3.53;;;15.40;99.90;;;;;;5071171;28;20096;-60
2023/08/31 02:16:56;;;;;;;7.35;3.10;;;15.40;99.90;;;;;;5053009;28;20448;-60
2023/08/31 02:19:21;;;;;;;9.18;3.33;;;15.40;99.90;;;;;;5070897;28;20016;-60
2023/08/31 02:21:48;;;;;;;7.03;3.20;;;15.40;99.90;;;;;;5071073;28;20045;-61
2023/08/31 02:24:13;;;;;;;9.25;3.58;;;15.40;99.90;;;;;;5070920;28;20021;-60
2023/08/31 02:26:39;;;;;;;8.90;3.50;;;15.30;99.90;;;;;;5070704;28;20528;-60
2023/08/31 02:29:05;;;;;;;5.93;3.00;;;15.30;99.90;;;;;;5070928;28;20424;-59
2023/08/31 02:31:30;;;;;;;9.25;3.20;;;15.30;99.90;;;;;;5071278;28;20028;-60
2023/08/31 02:33:56;;;;;;;8.82;3.42;;;15.30;99.90;;;;;;5053079;28;20038;-60
2023/08/31 02:36:22;;;;;;;6.13;3.28;;;15.40;99.90;;;;;;5070454;28;20037;-60
2023/08/31 02:38:49;;;;;;;6.38;3.28;;;15.50;99.90;;;;;;5071218;28;20043;-60
2023/08/31 02:41:15;;;;;;;7.00;3.38;;;15.70;99.90;;;;;;5070747;28;20485;-60
2023/08/31 02:43:41;;;;;;;6.93;3.25;;;15.90;99.90;;;;;;5070694;28;20083;-60
2023/08/31 02:46:06;;;;;;;5.97;2.95;;;16.00;99.90;;;;;;5070775;28;20044;-59
2023/08/31 02:48:32;;;;;;;6.68;3.03;;;16.10;99.90;;;;;;5070916;28;20071;-59
2023/08/31 02:51:02;;;;;;;9.02;3.03;;;16.10;99.90;;;;;;5072924;28;20021;-60
2023/08/31 02:53:31;;;;;;;8.93;3.38;;;16.10;99.90;;;;;;5074961;28;20032;-60
2023/08/31 02:55:57;;;;;;;9.80;3.10;;;16.20;99.90;;;;;;5074500;28;20032;-60
2023/08/31 02:58:23;;;;;;;6.75;3.03;;;16.20;99.90;;;;;;5056526;28;20131;-60
2023/08/31 03:00:49;;;;;;;8.30;3.20;;;16.30;99.90;;;;;;5074265;28;20150;-59
2023/08/31 03:03:16;;;;;;;9.82;3.30;;;16.30;99.90;;;;;;5074362;28;20107;-60
2023/08/31 03:05:42;;;;;;;9.07;3.30;;;16.20;99.90;;;;;;5074234;28;20039;-60
2023/08/31 03:08:08;;;;;;;7.80;3.22;;;16.10;99.90;;;;;;5074337;28;20024;-60
2023/08/31 03:10:34;;;;;;;7.53;3.13;;;16.10;99.90;;;;;;5074478;28;20046;-60
2023/08/31 03:13:00;;;;;;;7.20;3.38;;;16.00;99.90;;;;;;5074068;28;20051;-60
2023/08/31 03:15:26;;;;;;;8.10;3.30;;;15.90;99.90;;;;;;5074502;28;20485;-60
2023/08/31 03:17:51;;;;;;;6.70;3.40;;;15.90;99.90;;;;;;5074072;28;20541;-60
2023/08/31 03:20:17;;;;;;;9.05;3.50;;;15.80;99.90;;;;;;5073470;28;20086;-60
2023/08/31 03:22:43;;;;;;;6.75;3.13;;;15.80;99.90;;;;;;5074496;28;20090;-61
2023/08/31 03:25:08;;;;;;;10.13;3.45;;;15.80;99.90;;;;;;5074052;28;20027;-60
2023/08/31 03:27:35;;;;;;;9.18;3.60;;;15.70;99.90;;;;;;5073704;28;20083;-60
2023/08/31 03:30:01;;;;;;;8.52;3.38;;;15.70;99.90;;;;;;5074106;28;20016;-60
2023/08/31 03:32:27;;;;;;;7.28;3.40;;;15.80;99.90;;;;;;5073920;28;20381;-60
2023/08/31 03:34:52;;;;;;;6.97;3.40;;;15.70;99.90;;;;;;5073463;28;20028;-60
2023/08/31 03:37:19;;;;;;;10.45;4.00;;;15.80;99.90;;;;;;5073974;28;20021;-60
2023/08/31 03:39:47;;;;;;;6.90;3.38;;;15.80;99.90;;;;;;5073679;28;20029;-60
2023/08/31 03:42:13;;;;;;;9.15;3.70;;;15.70;99.90;;;;;;5074148;28;20394;-60
2023/08/31 03:44:39;;;;;;;8.75;3.53;;;15.70;99.90;;;;;;5073857;28;20109;-60
2023/08/31 03:47:05;;;;;;;8.65;3.55;;;15.70;99.90;;;;;;5073659;28;20420;-60
2023/08/31 03:49:31;;;;;;;8.38;3.55;;;15.70;99.90;;;;;;5073155;28;20031;-60
2023/08/31 03:51:57;;;;;;;7.88;3.60;;;15.70;99.90;;;;;;5073360;28;20520;-60
2023/08/31 03:54:23;;;;;;;7.40;3.70;;;15.60;99.90;;;;;;5073451;28;20016;-60
2023/08/31 03:56:49;;;;;;;8.50;3.63;;;15.60;99.90;;;;;;5073565;28;20036;-60
2023/08/31 03:59:15;;;;;;;11.13;3.80;;;15.70;99.90;;;;;;5073758;28;20029;-60
2023/08/31 04:01:40;;;;;;;7.75;3.30;;;15.80;99.90;;;;;;5073200;28;20032;-59
2023/08/31 04:04:06;;;;;;;8.88;4.13;;;15.90;99.90;;;;;;5072881;28;20029;-60
2023/08/31 04:06:32;;;;;;;7.55;3.72;;;16.00;99.90;;;;;;5073354;28;20154;-60
2023/08/31 04:08:57;;;;;;;6.25;3.22;;;16.10;99.90;;;;;;5073460;28;20056;-60
2023/08/31 04:11:25;;;;;;;7.57;3.63;;;16.10;99.90;;;;;;5073118;28;20099;-60
2023/08/31 04:13:50;;;;;;;8.85;3.70;;;16.10;99.90;;;;;;5073560;28;20027;-60
2023/08/31 04:16:16;;;;;;;8.48;3.45;;;16.20;99.90;;;;;;5073067;28;20033;-59
2023/08/31 04:18:42;;;;;;;7.45;3.65;;;16.20;99.90;;;;;;5072446;28;20031;-60
2023/08/31 04:21:08;;;;;;;8.10;3.58;;;16.20;99.90;;;;;;5073102;28;20044;-60
2023/08/31 04:23:34;;;;;;;7.20;3.53;;;16.20;99.90;;;;;;5072998;28;20021;-60
2023/08/31 04:26:00;;;;;;;7.18;3.88;;;16.20;99.90;;;;;;5072854;28;20046;-60
2023/08/31 04:28:26;;;;;;;7.53;3.60;;;16.20;99.90;;;;;;5073003;28;20059;-60
2023/08/31 04:30:52;;;;;;;7.95;3.80;;;16.10;99.90;;;;;;5072864;28;20404;-60
2023/08/31 04:33:18;;;;;;;9.80;4.05;;;15.90;99.90;;;;;;5072329;28;20036;-60
2023/08/31 04:35:43;;;;;;;8.48;3.60;;;15.80;99.90;;;;;;5072749;28;20049;-60
2023/08/31 04:38:09;;;;;;;8.40;3.80;;;15.80;99.90;;;;;;5072740;28;20528;-60
2023/08/31 04:40:36;;;;;;;9.75;4.30;;;15.60;99.90;;;;;;5072851;28;20021;-60
2023/08/31 04:43:03;;;;;;;7.78;4.10;;;15.50;99.90;;;;;;5054658;28;20035;-60
2023/08/31 04:45:28;;;;;;;9.13;4.22;;;15.50;99.90;;;;;;5072469;28;20032;-60
2023/08/31 04:47:54;;;;;;;7.25;4.07;;;15.50;99.90;;;;;;5072521;28;20107;-60
2023/08/31 04:50:20;;;;;;;9.10;4.00;;;15.50;99.90;;;;;;5072470;28;20033;-60
2023/08/31 04:52:45;;;;;;;9.65;4.18;;;15.40;99.90;;;;;;5072067;28;20485;-60
2023/08/31 04:55:13;;;;;;;9.35;4.30;;;15.40;99.90;;;;;;5072376;28;20047;-60
2023/08/31 04:57:39;;;;;;;9.65;4.30;;;15.30;99.90;;;;;;5072093;28;20029;-60
2023/08/31 05:00:08;;;;;;;8.13;4.03;;;15.30;99.90;;;;;;5072252;28;20036;-60
2023/08/31 05:02:34;;;;;;;8.93;4.28;;;15.30;99.90;;;;;;5071578;28;20028;-60
2023/08/31 05:05:00;;;;;;;7.57;4.20;;;15.30;99.90;;;;;;5072120;28;20051;-60
2023/08/31 05:07:26;;;;;;;7.63;4.40;;;15.30;99.90;;;;;;5071967;28;20028;-60
2023/08/31 05:09:51;;;;;;;8.18;3.97;;;15.20;99.90;;;;;;5072183;28;20032;-60
2023/08/31 05:12:17;;;;;;;7.70;4.05;;;15.20;99.90;;;;;;5071330;28;20029;-60
2023/08/31 05:14:43;;;;;;;10.07;4.20;;;15.20;99.90;;;;;;5071734;28;20063;-63
2023/08/31 05:17:09;;;;;;;8.73;4.22;;;15.20;99.90;;;;;;5071639;28;20493;-60
2023/08/31 05:19:34;;;;;;;8.65;3.97;;;15.10;99.90;;;;;;5071699;28;20056;-60
2023/08/31 05:22:00;;;;;;;8.27;4.43;;;15.30;99.90;;;;;;5071700;28;20493;-60
2023/08/31 05:24:26;;;;;;;6.72;3.92;;;15.40;99.90;;;;;;5072134;28;20428;-60
2023/08/31 05:26:52;;;;;;;6.57;3.90;;;15.50;99.90;;;;;;5053636;28;20059;-60
2023/08/31 05:29:17;;;;;;;8.32;3.88;;;15.70;99.90;;;;;;5071228;28;20028;-60
2023/08/31 05:31:43;;;;;;;8.95;4.10;;;15.80;99.90;;;;;;5071764;28;20090;-59
2023/08/31 05:34:17;;;;;;;9.48;3.72;;;15.90;99.90;;;;;;5071395;28;20099;-60
2023/08/31 05:36:43;;;;;;;8.68;4.30;;;15.90;99.90;;;;;;5072027;28;20489;-59
2023/08/31 05:39:09;;;;;;;10.07;4.03;;;16.00;99.90;;;;;;5071559;28;20017;-60
2023/08/31 05:41:35;;;;;;;7.97;4.03;;;16.10;99.90;;;;;;5071153;28;20048;-60
2023/08/31 05:44:02;;;;;;;7.07;4.00;;;16.10;99.90;;;;;;5071111;28;20021;-60
2023/08/31 05:46:27;;;;;;;6.65;3.70;;;16.10;99.90;;;;;;5071579;28;20040;-60
2023/08/31 05:48:53;;;;;;;9.45;4.28;;;16.20;99.90;;;;;;5071386;28;20162;-60
2023/08/31 05:51:18;;;;;;;6.63;3.72;;;16.20;99.90;;;;;;5071142;28;20457;-60
2023/08/31 05:53:44;;;;;;;6.25;3.80;;;16.10;99.90;;;;;;5071202;28;20020;-60
2023/08/31 05:56:10;;;;;;;7.30;4.18;;;16.00;99.90;;;;;;5071308;28;20043;-60
2023/08/31 05:58:36;;;;;;;9.40;3.80;;;15.90;99.90;;;;;;5071308;28;20104;-60
2023/08/31 06:01:03;;;;;;;8.57;4.07;;;15.90;99.90;;;;;;5071272;28;20032;-60
2023/08/31 06:03:30;;;;;;;10.75;4.25;;;15.90;99.90;;;;;;5071227;28;20020;-60
2023/08/31 06:05:57;;;;;;;9.63;3.90;;;15.80;99.90;;;;;;5071128;28;20028;-60
2023/08/31 06:08:23;;;;;;;9.77;4.18;;;15.80;99.90;;;;;;5071126;28;20393;-60
2023/08/31 06:10:49;;;;;;;7.90;3.90;;;15.80;99.90;;;;;;5071169;28;20021;-60
2023/08/31 06:13:15;;;;;;;11.13;4.00;;;15.80;99.90;;;;;;5071114;28;20055;-59
2023/08/31 06:15:40;;;;;;;7.53;3.92;;;15.80;99.90;;;;;;5070938;28;20028;-60
2023/08/31 06:18:06;;;;;;;8.50;4.22;;;15.90;99.90;;;;;;5070877;28;20477;-59
2023/08/31 06:20:32;;;;;;;6.82;4.07;;;15.90;99.90;;;;;;5070935;28;20834;-59
2023/08/31 06:22:59;;;;;;;7.38;4.13;;;16.00;99.90;;;;;;5071341;28;20032;-60
2023/08/31 06:25:24;;;;;;;7.60;3.97;;;16.00;99.90;;;;;;5073218;28;20024;-60
2023/08/31 06:27:51;;;;;;;9.07;4.28;;;16.00;99.90;;;;;;5074757;28;20075;-59
2023/08/31 06:30:17;;;;;;;8.85;4.10;;;16.00;99.90;;;;;;5074981;28;20496;-58
2023/08/31 06:32:47;;;;;;;9.30;4.10;;;16.00;99.90;;;;;;5075163;28;20116;-59
2023/08/31 06:35:15;;;;;;;9.63;4.20;;;16.20;99.90;;;;;;5075287;28;20025;-59
2023/08/31 06:37:41;;;;;;;6.07;4.03;;;16.30;99.90;;;;;;5075312;28;20166;-60
2023/08/31 06:40:10;;;;;;;8.25;3.90;;;16.50;99.90;;;;;;5074764;28;20024;-59
2023/08/31 06:42:39;;;;;;;10.10;4.40;;;16.70;99.90;;;;;;5074028;28;20162;-59
2023/08/31 06:45:07;;;;;;;10.45;3.80;;;16.80;99.90;;;;;;5074665;28;20519;-59
2023/08/31 06:47:33;;;;;;;9.27;4.13;;;17.00;99.90;;;;;;5073884;28;20401;-59
2023/08/31 06:49:58;;;;;;;11.80;3.80;;;17.10;99.90;;;;;;5074787;28;20016;-59
2023/08/31 06:52:25;;;;;;;10.30;3.80;;;17.20;99.90;;;;;;5074500;28;20051;-59
2023/08/31 06:54:55;;;;;;;9.82;4.03;;;17.30;99.90;;;;;;5073786;28;20107;-58
2023/08/31 06:57:24;;;;;;;10.18;3.65;;;17.30;99.90;;;;;;5074558;28;20112;-60
2023/08/31 06:59:50;;;;;;;8.60;3.95;;;17.40;99.90;;;;;;5074211;28;20032;-58
2023/08/31 07:02:16;;;;;;;6.80;3.75;;;17.50;99.90;;;;;;5073269;28;20044;-59
2023/08/31 07:04:42;;;;;;;8.07;3.67;;;17.50;99.90;;;;;;5073990;28;20020;-59
2023/08/31 07:07:13;;;;;;;8.65;3.63;;;17.60;99.90;;;;;;5073723;28;20032;-59
2023/08/31 07:09:38;;;;;;;6.13;3.33;;;17.70;99.90;;;;;;5074079;28;20025;-59
2023/08/31 07:12:04;;;;;;;7.85;3.75;;;17.70;99.90;;;;;;5055890;28;20083;-59
2023/08/31 07:14:30;;;;;;;7.97;3.85;;;17.70;99.90;;;;;;5056268;28;20032;-58
2023/08/31 07:16:56;;;;;;;9.77;3.88;;;17.60;99.90;;;;;;5074236;28;20033;-59
2023/08/31 07:19:21;;;;;;;7.57;3.75;;;17.50;99.90;;;;;;5073820;28;20424;-59
2023/08/31 07:21:47;;;;;;;7.78;3.90;;;17.50;99.90;;;;;;5073933;28;20047;-59
2023/08/31 07:24:13;;;;;;;5.95;3.30;;;17.50;99.90;;;;;;5074457;28;20021;-59
2023/08/31 07:26:39;;;;;;;8.98;3.78;;;17.40;99.90;;;;;;5073316;28;20055;-59
2023/08/31 07:29:05;;;;;;;11.35;3.88;;;17.50;99.90;;;;;;5073990;28;20119;-60
2023/08/31 07:31:33;;;;;;;7.97;3.75;;;17.40;99.90;;;;;;5073742;28;20063;-59
2023/08/31 07:33:59;;;;;;;6.90;3.60;;;17.50;99.90;;;;;;5073733;28;20485;-59
2023/08/31 07:36:25;;;;;;;9.95;3.63;;;17.50;99.90;;;;;;5073830;28;20055;-59
2023/08/31 07:38:51;;;;;;;8.65;4.03;;;17.40;99.90;;;;;;5073655;28;20060;-60
2023/08/31 07:41:16;;;;;;;10.00;3.90;;;17.50;99.90;;;;;;5073355;28;20078;-59
2023/08/31 07:43:42;;;;;;;7.82;3.97;;;17.40;99.90;;;;;;5073597;28;20036;-59
2023/08/31 07:46:08;;;;;;;6.93;3.95;;;17.30;99.90;;;;;;5073683;28;20477;-59
2023/08/31 07:48:33;;;;;;;8.65;4.07;;;17.30;99.90;;;;;;5073745;28;20119;-59
2023/08/31 07:50:59;;;;;;;9.65;4.45;;;17.20;99.90;;;;;;5073568;28;20020;-58
2023/08/31 07:53:25;;;;;;;11.48;4.20;;;17.20;99.90;;;;;;5073959;28;20485;-59
2023/08/31 07:55:54;;;;;;;11.57;5.05;;;17.40;99.90;;;;;;5072695;28;20375;-57
2023/08/31 07:58:21;;;;;;;9.00;4.43;;;17.50;99.90;;;;;;5073756;28;20402;-58
2023/08/31 08:00:46;;;;;;;8.27;4.32;;;17.70;99.90;;;;;;5073574;28;20029;-59
2023/08/31 08:03:12;;;;;;;8.45;4.53;;;17.80;99.90;;;;;;5073697;28;20055;-59
2023/08/31 08:05:40;;;;;;;8.98;4.65;;;18.00;99.90;;;;;;5072851;28;20016;-59
2023/08/31 08:08:06;;;;;;;10.30;4.38;;;18.00;99.90;;;;;;5072619;28;20502;-59
2023/08/31 08:10:32;;;;;;;11.48;5.15;;;18.10;99.90;;;;;;5072639;28;20024;-59
2023/08/31 08:12:58;;;;;;;8.23;4.63;;;18.20;99.90;;;;;;5073479;28;20078;-59
2023/08/31 08:15:24;;;;;;;14.48;4.55;;;18.10;99.90;;;;;;5073043;28;20472;-59
2023/08/31 08:17:51;;;;;;;10.57;4.38;;;18.20;99.90;;;;;;5073063;28;20024;-59
2023/08/31 08:20:16;;;;;;;8.52;4.93;;;18.20;99.90;;;;;;5072724;28;20498;-59
2023/08/31 08:22:43;;;;;;;7.60;4.30;;;18.20;99.90;;;;;;5054976;28;20424;-60
2023/08/31 08:25:09;;;;;;;9.20;4.70;;;18.20;99.90;;;;;;5072871;28;20027;-59
2023/08/31 08:27:36;;;;;;;8.80;4.50;;;18.20;99.90;;;;;;5072675;28;20061;-60
2023/08/31 08:30:02;;;;;;;9.88;4.72;;;18.10;99.90;;;;;;5072953;28;20083;-60
2023/08/31 08:32:28;;;;;;;10.48;4.65;;;18.00;99.90;;;;;;5072967;28;20027;-59
2023/08/31 08:34:54;;;;;;;7.95;4.80;;;17.90;99.90;;;;;;5072405;28;20032;-60
2023/08/31 08:37:19;;;;;;;10.85;4.88;;;17.80;99.90;;;;;;5072438;28;20067;-59
2023/08/31 08:39:51;;;;;;;8.80;5.25;;;17.90;99.90;;;;;;5072146;28;20032;-60
2023/08/31 08:42:19;;;;;;;11.32;5.20;;;17.80;99.90;;;;;;5072294;28;20043;-60
2023/08/31 08:44:45;;;;;;;10.25;4.70;;;17.90;99.90;;;;;;5072512;28;20029;-60
2023/08/31 08:47:15;;;;;;;7.53;4.80;;;17.90;99.90;;;;;;5071625;28;20432;-60
2023/08/31 08:49:42;;;;;;;11.75;5.60;;;17.90;99.90;;;;;;5072395;28;20024;-60
2023/08/31 08:52:09;;;;;;;10.43;5.20;;;18.00;99.90;;;;;;5072192;28;20489;-60
2023/08/31 08:54:35;;;;;;;9.23;4.70;;;18.00;99.90;;;;;;5071850;28;20024;-60
2023/08/31 08:57:01;;;;;;;9.43;5.00;;;18.10;99.90;;;;;;5072593;28;20032;-60
2023/08/31 08:59:27;;;;;;;10.18;5.28;;;18.20;99.90;;;;;;5072138;28;20075;-60
2023/08/31 09:01:53;;;;;;;7.88;4.80;;;18.30;99.90;;;;;;5054167;28;20045;-59
2023/08/31 09:04:19;;;;;;;10.63;4.85;;;18.30;99.90;;;;;;5072112;28;20388;-60
2023/08/31 09:06:45;;;;;;;10.23;5.18;;;18.30;99.90;;;;;;5071710;28;20032;-59
2023/08/31 09:09:11;;;;;;;8.45;5.30;;;18.40;99.90;;;;;;5072571;28;20024;-60
2023/08/31 09:11:36;;;;;;;11.57;5.30;;;18.40;99.90;;;;;;5071873;28;20028;-60
2023/08/31 09:14:20;;;;;;;9.27;5.40;;;18.60;99.90;;;;;;5072081;28;20382;-60
2023/08/31 09:16:50;;;;;;;8.82;5.10;;;18.70;99.90;;;;;;5071973;28;20370;-60
2023/08/31 09:19:24;;;;;;;8.02;4.80;;;18.90;99.90;;;;;;5071865;28;20086;-60
2023/08/31 09:21:51;;;;;;;9.43;5.32;;;19.00;99.90;;;;;;5071811;28;20036;-60
2023/08/31 09:24:18;;;;;;;7.65;4.50;;;19.20;99.90;;;;;;5053854;28;20245;-60
2023/08/31 09:26:58;;;;;;;10.60;5.28;;;19.30;99.90;;;;;;5071885;28;20516;-60
2023/08/31 09:29:24;;;;;;;8.48;4.75;;;19.40;99.90;;;;;;5072003;28;20033;-60
2023/08/31 09:31:50;;;;;;;10.40;5.10;;;19.50;99.90;;;;;;5071614;28;20029;-60
2023/08/31 09:34:17;;;;;;;9.93;4.85;;;19.60;99.90;;;;;;5071676;28;20056;-60
2023/08/31 09:36:43;;;;;;;7.80;4.78;;;19.70;99.90;;;;;;5071300;28;20032;-60
2023/08/31 09:39:11;;;;;;;9.32;4.50;;;19.80;99.90;;;;;;5071661;28;20381;-59
2023/08/31 09:41:55;;;;;;;8.02;4.65;;;19.80;99.90;;;;;;5071325;28;20033;-59
2023/08/31 09:44:21;;;;;;;8.18;4.85;;;19.70;99.90;;;;;;5071542;28;20131;-60
2023/08/31 09:46:47;;;;;;;7.60;4.55;;;19.60;99.90;;;;;;5071575;28;20162;-59
2023/08/31 09:49:15;;;;;;;7.93;5.07;;;19.50;99.90;;;;;;5071525;28;20103;-59
2023/08/31 09:51:45;;;;;;;8.63;5.63;;;19.50;99.90;;;;;;5070477;28;20775;-59
2023/08/31 09:54:15;;;;;;;7.40;6.10;;;19.40;99.90;;;;;;5071343;28;20029;-60
2023/08/31 09:56:43;;;;;;;11.50;9.73;;;19.40;99.90;;;;;;5071616;28;20029;-61
2023/08/31 09:59:10;;;;;;;24.83;22.83;;;19.40;99.90;;;;;;5071153;28;20021;-60
2023/08/31 10:01:36;;;;;;;17.85;16.35;;;19.40;99.90;;;;;;5052889;28;20382;-60
2023/08/31 10:04:03;;;;;;;16.23;14.93;;;19.40;99.90;;;;;;5071555;28;20509;-60
2023/08/31 10:06:31;;;;;;;9.18;8.30;;;19.40;99.90;;;;;;5070835;28;20016;-60
2023/08/31 10:08:57;;;;;;;6.90;6.20;;;19.40;99.90;;;;;;5071307;28;20389;-60
2023/08/31 10:11:27;;;;;;;8.40;5.90;;;19.40;99.90;;;;;;5071179;28;20028;-60
2023/08/31 10:13:54;;;;;;;5.85;4.82;;;19.50;99.90;;;;;;5071053;28;20036;-60
2023/08/31 10:16:21;;;;;;;5.28;4.15;;;19.50;99.90;;;;;;5071071;28;20120;-60
2023/08/31 10:18:48;;;;;;;5.25;3.92;;;19.60;99.90;;;;;;5071368;28;20481;-60
2023/08/31 10:21:17;;;;;;;4.10;3.58;;;19.70;99.90;;;;;;5070304;28;20092;-60
2023/08/31 10:23:49;;;;;;;5.47;3.08;;;19.80;99.90;;;;;;5071075;28;20075;-61
2023/08/31 10:26:28;;;;;;;3.60;2.60;;;19.90;99.90;;;;;;5070652;28;20071;-60
2023/08/31 10:28:54;;;;;;;5.00;2.42;;;20.20;99.90;;;;;;5070989;28;20088;-61
2023/08/31 10:31:24;;;;;;;4.75;2.05;;;20.30;99.90;;;;;;5070705;28;20413;-61
2023/08/31 10:33:59;;;;;;;3.53;1.70;;;20.50;99.90;;;;;;5070907;28;20028;-61
2023/08/31 10:36:44;;;;;;;5.43;1.60;;;20.40;99.90;;;;;;5070804;28;20060;-61
2023/08/31 10:39:17;;;;;;;2.78;1.38;;;20.50;99.90;;;;;;5071354;28;20028;-60
2023/08/31 10:41:53;;;;;;;;;;;20.50;99.90;;;;;;5070829;28;20048;-60
2023/08/31 10:44:21;;;;;;;3.90;1.80;;;20.60;99.90;;;;;;5070584;28;20424;-60
2023/08/31 10:46:48;;;;;;;5.28;3.13;;;20.70;99.90;;;;;;5070404;28;20040;-60
2023/08/31 10:49:17;;;;;;;7.20;4.45;;;20.70;99.90;;;;;;5070497;28;20113;-60
2023/08/31 10:52:19;;;;;;;27.38;17.60;;;20.70;99.90;;;;;;5070524;28;20036;-60
2023/08/31 10:54:47;;;;;;;26.77;17.80;;;20.50;99.90;;;;;;5066244;28;20032;-59
2023/08/31 10:57:14;;;;;;;28.92;20.67;;;20.50;99.90;;;;;;5070407;28;20035;-60
2023/08/31 10:59:53;;;;;;;19.40;12.90;;;20.50;99.90;;;;;;5070525;28;20058;-60
2023/08/31 11:02:35;;;;;;;6.57;4.15;;;20.50;99.90;;;;;;5070271;28;20040;-60
2023/08/31 11:05:10;;;;;;;5.85;3.67;;;20.40;99.90;;;;;;5070172;28;20021;-60
2023/08/31 11:07:41;;;;;;;8.27;5.38;;;20.40;99.90;;;;;;5070584;28;20024;-61
2023/08/31 11:10:16;;;;;;;11.95;8.07;;;20.40;99.90;;;;;;5071156;28;20075;-61
2023/08/31 11:12:48;;;;;;;18.40;11.73;;;20.40;99.90;;;;;;5074360;28;20027;-60
2023/08/31 11:15:15;;;;;;;9.93;6.90;;;20.50;99.90;;;;;;5073911;28;20035;-60
2023/08/31 11:17:42;;;;;;;4.55;3.30;;;20.40;99.90;;;;;;5074198;28;20028;-60
2023/08/31 11:20:13;;;;;;;5.47;4.15;;;20.50;99.90;;;;;;5073680;28;20033;-60
2023/08/31 11:22:40;;;;;;;3.25;2.40;;;20.50;99.90;;;;;;5074072;28;20029;-60
2023/08/31 11:25:08;;;;;;;5.30;3.33;;;20.50;99.90;;;;;;5073850;28;20362;-61
2023/08/31 11:27:34;;;;;;;7.97;5.28;;;20.60;99.90;;;;;;5073841;28;20051;-60
2023/08/31 11:30:00;;;;;;;2.83;2.30;;;20.70;99.90;;;;;;5074091;28;20012;-60
2023/08/31 11:32:25;;;;;;;5.00;3.22;;;20.50;99.90;;;;;;5073557;28;20385;-60
2023/08/31 11:34:51;;;;;;;6.75;4.43;;;20.50;99.90;;;;;;5073497;28;20021;-60
2023/08/31 11:37:19;;;;;;;5.00;3.20;;;20.60;99.90;;;;;;5073942;28;20034;-60
2023/08/31 11:39:53;;;;;;;4.30;2.30;;;20.70;99.90;;;;;;5073565;28;20028;-60
2023/08/31 11:42:20;;;;;;;3.70;2.30;;;20.80;99.90;;;;;;5073480;28;20068;-60
2023/08/31 11:44:51;;;;;;;2.40;1.67;;;20.90;99.90;;;;;;5073619;28;20616;-60
2023/08/31 11:47:19;;;;;;;3.42;1.60;;;21.10;99.90;;;;;;5073337;28;20028;-60
2023/08/31 11:49:46;;;;;;;4.25;1.80;;;21.30;99.90;;;;;;5073638;28;20016;-60
2023/08/31 11:52:12;;;;;;;3.55;1.60;;;21.40;99.90;;;;;;5073299;28;20035;-60
2023/08/31 11:54:42;;;;;;;4.15;1.80;;;21.50;99.90;;;;;;5073346;28;20025;-61
2023/08/31 11:57:11;;;;;;;4.15;2.00;;;21.60;99.90;;;;;;5073847;28;20035;-60
2023/08/31 11:59:38;;;;;;;3.90;1.80;;;21.60;99.90;;;;;;5073680;28;20504;-60
2023/08/31 12:02:08;;;;;;;4.03;1.70;;;21.90;99.90;;;;;;5072993;28;20111;-60
2023/08/31 12:04:42;;;;;;;2.63;1.60;;;21.90;99.90;;;;;;5073372;28;20027;-60
2023/08/31 12:07:08;;;;;;;3.35;1.52;;;21.90;99.90;;;;;;5073615;28;20395;-60
2023/08/31 12:09:33;;;;;;;5.57;2.17;;;21.80;99.90;;;;;;5055294;28;20083;-60
2023/08/31 12:12:04;;;;;;;3.65;1.83;;;21.80;99.90;;;;;;5073082;28;20025;-61
2023/08/31 12:14:30;;;;;;;3.80;1.65;;;22.00;99.90;;;;;;5073100;28;20095;-61
2023/08/31 12:17:05;;;;;;;4.03;1.50;;;22.10;99.90;;;;;;5073013;28;20044;-60
2023/08/31 12:19:32;;;;;;;4.72;1.50;;;22.20;99.90;;;;;;5072915;28;20389;-61
2023/08/31 12:21:58;;;;;;;3.42;1.60;;;22.10;99.90;;;;;;5072954;28;20040;-61
2023/08/31 12:24:24;;;;;;;5.20;1.70;;;22.20;99.90;;;;;;5073033;28;20025;-61
2023/08/31 12:26:53;;;;;;;3.55;1.58;;;22.20;99.90;;;;;;5072796;28;20076;-60
2023/08/31 12:29:19;;;;;;;5.65;1.60;;;22.30;99.90;;;;;;5073256;28;20437;-61
2023/08/31 12:31:45;;;;;;;4.65;1.60;;;22.30;99.90;;;;;;5072280;28;20036;-61
2023/08/31 12:34:10;;;;;;;5.82;1.70;;;22.40;99.90;;;;;;5072808;28;20047;-60
2023/08/31 12:36:38;;;;;;;4.05;1.65;;;22.60;99.90;;;;;;5072695;28;20039;-60
2023/08/31 12:39:06;;;;;;;4.03;1.20;;;22.90;99.90;;;;;;5072692;28;20806;-60
2023/08/31 12:41:33;;;;;;;3.55;1.70;;;22.70;99.90;;;;;;5072540;28;20059;-61
2023/08/31 12:43:59;;;;;;;3.05;1.20;;;22.70;99.90;;;;;;5054594;28;20024;-61
2023/08/31 12:46:25;;;;;;;4.30;1.38;;;22.60;99.90;;;;;;5071993;28;20497;-60